Time;durP1;ratioP1;P1;durP2;ratioP2;P2;SDS_P1;SDS_P2;PMS_P1;PMS_P2;Temp;Humidity;BMP_temperature;BMP_pressure;BME280_temperature;BME280_humidity;BME280_pressure;Samples;Min_cycle;Max_cycle;Signal;HPM_P1;HPM_P2
2022/06/24 00:00:45;;;;;;;0.55;0.52;;;20.70;99.90;;;;;;4978432;28;93078;-35
2022/06/24 00:03:17;;;;;;;0.73;0.73;;;20.50;99.90;;;;;;4978330;28;94444;-36
2022/06/24 00:05:43;;;;;;;4.50;1.08;;;20.50;99.90;;;;;;4978193;28;94649;-36
2022/06/24 00:08:09;;;;;;;0.38;0.38;;;20.70;99.90;;;;;;4977824;28;94464;-36
2022/06/24 00:10:36;;;;;;;0.25;0.25;;;20.60;99.90;;;;;;4979447;28;94013;-39
2022/06/24 00:13:04;;;;;;;0.20;0.20;;;20.60;99.90;;;;;;4978556;28;94391;-34
2022/06/24 00:15:32;;;;;;;0.20;0.20;;;20.60;99.90;;;;;;4977710;28;94573;-36
2022/06/24 00:18:10;;;;;;;;;;;20.60;99.90;;;;;;4978560;28;94435;-36
2022/06/24 00:20:50;;;;;;;0.20;0.00;;;20.70;99.90;;;;;;4979698;28;93934;-37
2022/06/24 00:23:20;;;;;;;0.20;0.00;;;20.60;99.90;;;;;;4978074;28;93506;-34
2022/06/24 00:25:46;;;;;;;0.20;0.10;;;20.50;99.90;;;;;;4976786;28;95715;-35
2022/06/24 00:28:12;;;;;;;0.32;0.17;;;20.40;99.90;;;;;;4978122;28;95663;-39
2022/06/24 00:30:42;;;;;;;0.30;0.30;;;20.40;99.90;;;;;;4977458;28;94734;-37
2022/06/24 00:33:16;;;;;;;0.20;0.00;;;20.30;99.90;;;;;;4978500;28;92244;-34
2022/06/24 00:35:50;;;;;;;0.20;0.10;;;20.20;99.90;;;;;;4977313;28;94930;-40
2022/06/24 00:38:22;;;;;;;0.35;0.20;;;20.10;99.90;;;;;;4977597;28;94332;-38
2022/06/24 00:40:52;;;;;;;0.73;0.63;;;20.00;99.90;;;;;;4978190;28;92984;-33
2022/06/24 00:43:32;;;;;;;0.70;0.70;;;20.00;99.90;;;;;;4978744;28;92611;-33
2022/06/24 00:46:03;;;;;;;0.20;0.05;;;19.90;99.90;;;;;;4977077;28;94183;-38
2022/06/24 00:48:30;;;;;;;0.20;0.10;;;19.90;99.90;;;;;;4977513;28;94535;-39
2022/06/24 00:50:56;;;;;;;0.55;0.55;;;19.70;99.90;;;;;;4977178;28;94915;-38
2022/06/24 00:53:22;;;;;;;0.38;0.25;;;19.60;99.90;;;;;;4977518;28;93382;-36
2022/06/24 00:55:48;;;;;;;1.27;1.05;;;19.60;99.90;;;;;;4977230;28;94777;-34
2022/06/24 00:58:15;;;;;;;0.20;0.00;;;19.50;99.90;;;;;;4977837;28;94790;-36
2022/06/24 01:00:44;;;;;;;0.20;0.20;;;19.40;99.90;;;;;;4977548;28;94259;-36
2022/06/24 01:03:11;;;;;;;0.30;0.30;;;19.30;99.90;;;;;;4977121;28;92102;-37
2022/06/24 01:05:37;;;;;;;0.20;0.10;;;19.20;99.90;;;;;;4995745;22;97076;-35
2022/06/24 01:08:08;;;;;;;0.50;0.50;;;19.20;99.90;;;;;;4958218;28;94517;-34
2022/06/24 01:10:34;;;;;;;0.63;0.63;;;19.30;99.90;;;;;;4958430;28;92306;-34
2022/06/24 01:13:00;;;;;;;1.30;0.60;;;19.40;99.90;;;;;;4957093;28;92644;-37
2022/06/24 01:15:26;;;;;;;0.20;0.03;;;19.30;99.90;;;;;;4955209;28;96010;-34
2022/06/24 01:17:52;;;;;;;0.52;0.52;;;19.20;99.90;;;;;;4956828;28;95852;-34
2022/06/24 01:20:18;;;;;;;0.30;0.20;;;19.10;99.90;;;;;;4957531;28;93107;-34
2022/06/24 01:22:44;;;;;;;0.45;0.45;;;19.00;99.90;;;;;;4958144;28;94032;-37
2022/06/24 01:25:10;;;;;;;0.73;0.73;;;19.00;99.90;;;;;;4956473;28;96411;-35
2022/06/24 01:27:36;;;;;;;0.40;0.40;;;19.00;99.90;;;;;;4956599;28;94573;-36
2022/06/24 01:30:03;;;;;;;0.20;0.10;;;18.90;99.90;;;;;;4957490;28;93452;-34
2022/06/24 01:32:29;;;;;;;0.30;0.25;;;18.90;99.90;;;;;;4957193;28;91722;-35
2022/06/24 01:34:56;;;;;;;0.20;0.05;;;18.90;99.90;;;;;;4957310;28;94911;-35
2022/06/24 01:37:25;;;;;;;0.40;0.40;;;18.80;99.90;;;;;;4957073;28;94382;-37
2022/06/24 01:39:50;;;;;;;0.25;0.10;;;18.80;99.90;;;;;;4957075;28;95173;-35
2022/06/24 01:42:16;;;;;;;0.20;0.10;;;18.80;99.90;;;;;;4957189;28;94408;-33
2022/06/24 01:44:42;;;;;;;1.13;1.10;;;18.80;99.90;;;;;;4957137;28;94758;-38
2022/06/24 01:47:08;;;;;;;0.20;0.10;;;18.80;99.90;;;;;;4956911;28;94206;-37
2022/06/24 01:49:33;;;;;;;0.47;0.47;;;18.80;99.90;;;;;;4956679;28;95093;-35
2022/06/24 01:51:59;;;;;;;0.20;0.10;;;18.70;99.90;;;;;;4956850;28;93227;-35
2022/06/24 01:54:25;;;;;;;0.40;0.30;;;18.70;99.90;;;;;;4955789;28;94770;-33
2022/06/24 01:56:53;;;;;;;0.20;0.10;;;18.70;99.90;;;;;;4957231;28;94629;-36
2022/06/24 01:59:19;;;;;;;0.20;0.10;;;18.70;99.90;;;;;;4957458;28;93364;-34
2022/06/24 02:01:45;;;;;;;0.22;0.13;;;18.70;99.90;;;;;;4955796;28;94730;-34
2022/06/24 02:04:10;;;;;;;0.25;0.17;;;18.70;99.90;;;;;;4956429;28;95081;-36
2022/06/24 02:06:36;;;;;;;0.82;0.77;;;18.70;99.90;;;;;;4955947;28;95289;-35
2022/06/24 02:09:03;;;;;;;0.28;0.15;;;18.70;99.90;;;;;;4956937;28;94851;-37
2022/06/24 02:14:14;;;;;;;0.20;0.15;;;18.60;99.90;;;;;;4956325;28;95096;-34
2022/06/24 02:16:40;;;;;;;0.20;0.08;;;18.50;99.90;;;;;;4958732;28;94085;-39
2022/06/24 02:19:06;;;;;;;0.20;0.20;;;18.40;99.90;;;;;;4960274;28;94603;-35
2022/06/24 02:21:33;;;;;;;0.20;0.13;;;18.30;99.90;;;;;;4960169;28;94337;-37
2022/06/24 02:23:58;;;;;;;0.47;0.47;;;18.20;99.90;;;;;;4959677;28;94890;-35
2022/06/24 02:26:25;;;;;;;0.32;0.32;;;18.10;99.90;;;;;;4959575;28;96104;-33
2022/06/24 02:28:52;;;;;;;0.20;0.08;;;18.00;99.90;;;;;;4958297;28;93827;-35
2022/06/24 02:31:18;;;;;;;0.20;0.10;;;18.00;99.90;;;;;;4960279;28;93098;-37
2022/06/24 02:33:44;;;;;;;0.20;0.10;;;18.00;99.90;;;;;;4959170;28;96078;-37
2022/06/24 02:36:10;;;;;;;0.20;0.00;;;18.00;99.90;;;;;;4959308;28;94647;-38
2022/06/24 02:38:36;;;;;;;0.20;0.10;;;17.90;99.90;;;;;;4960185;28;92446;-35
2022/06/24 02:41:02;;;;;;;0.30;0.30;;;17.90;99.90;;;;;;4959870;28;94868;-34
2022/06/24 02:43:32;;;;;;;0.43;0.15;;;17.90;99.90;;;;;;4959755;28;93526;-38
2022/06/24 02:46:09;;;;;;;0.65;0.52;;;17.90;99.90;;;;;;4958019;28;94454;-39
2022/06/24 02:48:37;;;;;;;0.70;0.70;;;17.90;99.90;;;;;;4959760;28;93153;-36
2022/06/24 02:51:05;;;;;;;0.45;0.45;;;17.90;99.90;;;;;;4959818;28;93969;-35
2022/06/24 02:53:32;;;;;;;0.50;0.32;;;17.90;99.90;;;;;;4959240;28;94396;-39
2022/06/24 02:56:00;;;;;;;0.20;0.10;;;17.90;99.90;;;;;;4958456;28;95438;-40
2022/06/24 02:58:26;;;;;;;0.32;0.32;;;18.00;99.90;;;;;;4960041;28;93087;-36
2022/06/24 03:00:52;;;;;;;0.20;0.10;;;18.10;99.90;;;;;;4959304;28;93112;-36
2022/06/24 03:03:21;;;;;;;0.20;0.00;;;18.10;99.90;;;;;;4959512;28;94032;-33
2022/06/24 03:05:48;;;;;;;0.20;0.03;;;18.20;99.90;;;;;;4958351;28;94320;-39
2022/06/24 03:08:15;;;;;;;0.28;0.28;;;18.20;99.90;;;;;;4959745;28;93025;-34
2022/06/24 03:10:42;;;;;;;0.20;0.08;;;18.20;99.90;;;;;;4959955;28;91642;-34
2022/06/24 03:13:08;;;;;;;0.35;0.35;;;18.20;99.90;;;;;;4958851;28;94851;-36
2022/06/24 03:15:34;;;;;;;0.20;0.10;;;18.10;99.90;;;;;;4959596;28;95108;-34
2022/06/24 03:18:00;;;;;;;0.20;0.10;;;18.10;99.90;;;;;;4958869;28;95606;-34
2022/06/24 03:20:27;;;;;;;0.93;0.47;;;18.10;99.90;;;;;;4959036;28;92518;-36
2022/06/24 03:22:53;;;;;;;0.45;0.28;;;18.20;99.90;;;;;;4958821;28;94970;-34
2022/06/24 03:25:18;;;;;;;1.65;1.40;;;18.30;99.90;;;;;;4958073;28;95111;-36
2022/06/24 03:27:44;;;;;;;0.20;0.13;;;18.30;99.90;;;;;;4958162;28;93833;-36
2022/06/24 03:30:12;;;;;;;0.20;0.15;;;18.40;99.90;;;;;;4959765;28;92160;-34
2022/06/24 03:32:37;;;;;;;0.63;0.63;;;18.60;99.90;;;;;;4958454;28;96926;-35
2022/06/24 03:35:04;;;;;;;0.20;0.20;;;18.60;99.90;;;;;;4958618;28;94793;-39
2022/06/24 03:37:30;;;;;;;0.65;0.40;;;18.60;99.90;;;;;;4958837;28;92205;-33
2022/06/24 03:39:57;;;;;;;0.22;0.17;;;18.70;99.90;;;;;;4958752;28;92992;-36
2022/06/24 03:42:22;;;;;;;0.43;0.43;;;18.70;99.90;;;;;;4958256;28;96119;-38
2022/06/24 03:44:48;;;;;;;0.20;0.15;;;18.80;99.90;;;;;;4958168;28;95362;-35
2022/06/24 03:47:14;;;;;;;0.20;0.00;;;18.90;99.90;;;;;;4958546;28;94099;-36
2022/06/24 03:49:40;;;;;;;0.20;0.20;;;19.00;99.90;;;;;;4958584;28;92172;-38
2022/06/24 03:52:06;;;;;;;0.95;0.95;;;19.10;99.90;;;;;;4958353;28;95244;-35
2022/06/24 03:54:32;;;;;;;0.20;0.10;;;19.20;99.90;;;;;;4958459;28;94771;-38
2022/06/24 03:56:58;;;;;;;0.20;0.00;;;19.20;99.90;;;;;;4958826;28;93551;-35
2022/06/24 03:59:23;;;;;;;0.60;0.40;;;19.10;99.90;;;;;;4958469;28;92349;-36
2022/06/24 04:01:49;;;;;;;7.82;3.13;;;19.10;99.90;;;;;;4958554;28;94434;-37
2022/06/24 04:04:15;;;;;;;0.20;0.10;;;19.10;99.90;;;;;;4957985;28;95021;-33
2022/06/24 04:06:40;;;;;;;0.20;0.20;;;19.10;99.90;;;;;;4957869;28;94293;-37
2022/06/24 04:09:06;;;;;;;0.57;0.57;;;19.20;99.90;;;;;;4958388;28;93049;-34
2022/06/24 04:11:32;;;;;;;0.20;0.00;;;19.30;99.90;;;;;;4958330;28;94796;-34
2022/06/24 04:13:59;;;;;;;0.20;0.20;;;19.30;99.90;;;;;;4958502;28;94136;-34
2022/06/24 04:16:25;;;;;;;0.70;0.68;;;19.20;99.90;;;;;;4958313;28;94068;-36
2022/06/24 04:18:51;;;;;;;0.30;0.22;;;19.20;99.90;;;;;;4957904;28;93447;-36
2022/06/24 04:21:17;;;;;;;0.30;0.30;;;19.20;99.90;;;;;;4958175;28;96365;-35
2022/06/24 04:23:44;;;;;;;0.20;0.20;;;19.30;99.90;;;;;;4958166;28;95414;-33
2022/06/24 04:26:10;;;;;;;0.20;0.08;;;19.40;99.90;;;;;;4958543;28;93124;-36
2022/06/24 04:28:36;;;;;;;0.20;0.20;;;19.40;99.90;;;;;;4957579;28;93250;-38
2022/06/24 04:31:03;;;;;;;0.20;0.15;;;19.50;99.90;;;;;;4988646;28;95448;-34
2022/06/24 04:33:28;;;;;;;0.77;0.77;;;19.60;99.90;;;;;;4958584;28;94215;-38
2022/06/24 04:35:54;;;;;;;0.43;0.40;;;19.60;99.90;;;;;;4957106;28;94712;-36
2022/06/24 04:38:20;;;;;;;0.20;0.10;;;19.70;99.90;;;;;;4989580;28;93488;-39
2022/06/24 04:40:45;;;;;;;0.32;0.32;;;19.80;99.90;;;;;;4957405;28;94902;-36
2022/06/24 04:43:12;;;;;;;0.35;0.35;;;20.00;99.90;;;;;;4957786;28;94383;-34
2022/06/24 04:45:38;;;;;;;0.20;0.10;;;20.10;99.90;;;;;;4958669;28;94210;-37
2022/06/24 04:48:05;;;;;;;0.30;0.20;;;20.10;99.90;;;;;;4956875;28;93009;-36
2022/06/24 04:50:31;;;;;;;0.30;0.22;;;20.10;99.90;;;;;;4957351;28;94637;-34
2022/06/24 04:52:56;;;;;;;0.20;0.10;;;20.20;99.90;;;;;;4957296;28;94701;-35
2022/06/24 04:55:22;;;;;;;0.65;0.65;;;20.20;99.90;;;;;;4957344;28;93766;-36
2022/06/24 04:57:48;;;;;;;0.20;0.05;;;20.30;99.90;;;;;;4958130;28;94716;-34
2022/06/24 05:00:14;;;;;;;0.30;0.20;;;20.50;99.90;;;;;;4955757;28;94278;-35
2022/06/24 05:02:41;;;;;;;0.20;0.00;;;20.70;99.90;;;;;;4957013;28;94649;-37
2022/06/24 05:05:08;;;;;;;0.38;0.17;;;20.90;99.90;;;;;;4957351;28;94719;-37
2022/06/24 05:07:33;;;;;;;0.20;0.00;;;21.00;99.90;;;;;;4957762;28;94295;-34
2022/06/24 05:09:59;;;;;;;0.20;0.10;;;21.10;99.90;;;;;;4957146;28;94708;-35
2022/06/24 05:12:24;;;;;;;0.20;0.00;;;21.40;99.90;;;;;;4957734;28;94105;-35
2022/06/24 05:14:50;;;;;;;0.20;0.00;;;21.60;99.90;;;;;;4956324;28;93449;-32
2022/06/24 05:17:16;;;;;;;0.35;0.35;;;21.80;99.90;;;;;;4957913;28;93923;-37
2022/06/24 05:19:41;;;;;;;0.77;0.77;;;21.80;99.90;;;;;;4956385;28;95617;-34
2022/06/24 05:22:07;;;;;;;0.40;0.40;;;21.60;99.90;;;;;;4957398;28;94843;-37
2022/06/24 05:24:33;;;;;;;0.52;0.52;;;21.50;99.90;;;;;;4957210;28;93148;-33
2022/06/24 05:26:59;;;;;;;0.30;0.20;;;21.40;99.90;;;;;;4956560;28;93203;-35
2022/06/24 05:29:24;;;;;;;0.68;0.50;;;21.20;99.90;;;;;;4957090;28;95288;-35
2022/06/24 05:31:50;;;;;;;0.20;0.10;;;21.10;99.90;;;;;;4956373;28;94319;-37
2022/06/24 05:34:16;;;;;;;0.25;0.20;;;21.00;99.90;;;;;;4958102;28;92167;-33
2022/06/24 05:36:42;;;;;;;0.40;0.40;;;20.90;99.90;;;;;;4957048;28;94134;-33
2022/06/24 05:39:09;;;;;;;0.40;0.30;;;20.80;99.90;;;;;;4956679;28;94599;-37
2022/06/24 05:41:37;;;;;;;0.30;0.30;;;20.70;99.90;;;;;;4956960;28;94303;-41
2022/06/24 05:44:03;;;;;;;0.95;0.52;;;20.70;99.90;;;;;;4957248;28;95649;-33
2022/06/24 05:46:29;;;;;;;0.60;0.60;;;20.70;99.90;;;;;;4956608;28;93742;-35
2022/06/24 05:48:55;;;;;;;0.50;0.50;;;20.50;99.90;;;;;;4956869;28;94932;-35
2022/06/24 05:51:21;;;;;;;0.60;0.60;;;20.30;99.90;;;;;;4955922;28;95809;-34
2022/06/24 05:56:31;;;;;;;0.77;0.77;;;19.90;99.90;;;;;;4957244;28;93567;-36
2022/06/24 05:58:58;;;;;;;0.30;0.17;;;19.80;99.90;;;;;;4956752;28;94871;-34
2022/06/24 06:01:25;;;;;;;0.20;0.08;;;19.70;99.90;;;;;;4956794;28;94353;-36
2022/06/24 06:03:50;;;;;;;0.25;0.05;;;19.80;99.90;;;;;;4957359;28;93760;-34
2022/06/24 06:06:16;;;;;;;0.20;0.20;;;19.80;99.90;;;;;;4956414;28;93792;-34
2022/06/24 06:08:42;;;;;;;0.30;0.30;;;19.80;99.90;;;;;;4956204;28;95391;-35
2022/06/24 06:11:12;;;;;;;0.75;0.75;;;19.80;99.90;;;;;;4956356;28;95457;-33
2022/06/24 06:13:38;;;;;;;0.73;0.73;;;19.70;99.90;;;;;;4956918;28;92588;-34
2022/06/24 06:16:05;;;;;;;0.47;0.47;;;19.70;99.90;;;;;;4956858;28;92603;-34
2022/06/24 06:18:30;;;;;;;0.30;0.22;;;19.70;99.90;;;;;;4957369;28;94799;-35
2022/06/24 06:21:00;;;;;;;0.20;0.17;;;19.70;99.90;;;;;;4956026;28;93368;-34
2022/06/24 06:23:28;;;;;;;1.55;1.45;;;19.80;99.90;;;;;;4956585;28;93778;-34
2022/06/24 06:25:54;;;;;;;0.93;0.30;;;19.80;99.90;;;;;;4956474;28;93236;-33
2022/06/24 06:28:20;;;;;;;0.43;0.43;;;19.80;99.90;;;;;;4957383;28;94992;-34
2022/06/24 06:30:45;;;;;;;0.30;0.20;;;19.80;99.90;;;;;;4956104;28;96431;-35
2022/06/24 06:33:11;;;;;;;0.20;0.10;;;19.80;99.90;;;;;;4956957;28;94535;-36
2022/06/24 06:35:37;;;;;;;0.90;0.70;;;19.70;99.90;;;;;;4956398;28;93047;-37
2022/06/24 06:38:02;;;;;;;0.20;0.10;;;19.70;99.90;;;;;;4956199;28;95194;-35
2022/06/24 06:40:28;;;;;;;0.98;0.65;;;19.80;99.90;;;;;;4956464;28;94649;-37
2022/06/24 06:42:56;;;;;;;0.22;0.13;;;19.80;99.90;;;;;;4954919;28;93497;-36
2022/06/24 06:45:22;;;;;;;0.20;0.20;;;19.80;99.90;;;;;;4954237;28;93575;-35
2022/06/24 06:47:47;;;;;;;0.43;0.43;;;19.80;99.90;;;;;;4953303;28;94484;-37
2022/06/24 06:50:13;;;;;;;0.20;0.00;;;19.80;99.90;;;;;;4954129;28;95317;-35
2022/06/24 06:52:40;;;;;;;0.30;0.30;;;19.80;99.90;;;;;;4955013;28;92117;-36
2022/06/24 06:55:06;;;;;;;0.20;0.17;;;19.90;99.90;;;;;;4954324;28;93210;-34
2022/06/24 06:57:32;;;;;;;0.75;0.75;;;19.80;99.90;;;;;;4951868;28;95360;-33
2022/06/24 06:59:57;;;;;;;0.43;0.38;;;19.80;99.90;;;;;;4953956;28;97264;-35
2022/06/24 07:02:23;;;;;;;0.35;0.32;;;19.70;99.90;;;;;;4955013;28;93662;-35
2022/06/24 07:04:48;;;;;;;0.20;0.10;;;19.70;99.90;;;;;;4949438;28;93595;-39
2022/06/24 07:07:14;;;;;;;0.20;0.10;;;19.70;99.90;;;;;;4957097;28;95122;-33
2022/06/24 07:09:40;;;;;;;0.28;0.20;;;19.70;99.90;;;;;;4956363;28;94304;-39
2022/06/24 07:12:06;;;;;;;0.40;0.40;;;19.70;99.90;;;;;;4954458;28;94308;-35
2022/06/24 07:14:32;;;;;;;0.20;0.10;;;19.70;99.90;;;;;;4955980;28;92350;-36
2022/06/24 07:16:57;;;;;;;1.05;1.02;;;19.70;99.90;;;;;;4956917;28;95632;-37
2022/06/24 07:19:23;;;;;;;0.20;0.13;;;19.70;99.90;;;;;;4955858;28;95653;-36
2022/06/24 07:21:49;;;;;;;0.20;0.00;;;19.80;99.90;;;;;;4954782;28;93438;-35
2022/06/24 07:24:15;;;;;;;0.20;0.10;;;19.60;99.90;;;;;;4957373;28;93064;-33
2022/06/24 07:26:41;;;;;;;0.47;0.43;;;19.60;99.90;;;;;;4956023;28;94201;-37
2022/06/24 07:29:06;;;;;;;0.22;0.22;;;19.70;99.90;;;;;;4957167;28;94577;-36
2022/06/24 07:31:32;;;;;;;0.50;0.20;;;19.70;99.90;;;;;;4957270;28;93883;-37
2022/06/24 07:33:57;;;;;;;1.40;1.10;;;19.70;99.90;;;;;;4956343;28;93559;-38
2022/06/24 07:36:23;;;;;;;0.20;0.10;;;19.70;99.90;;;;;;4956310;28;96124;-35
2022/06/24 07:38:49;;;;;;;0.20;0.00;;;19.70;99.90;;;;;;4956521;28;94653;-37
2022/06/24 07:41:14;;;;;;;0.20;0.00;;;19.70;99.90;;;;;;4957219;28;94266;-35
2022/06/24 07:43:40;;;;;;;0.38;0.38;;;19.70;99.90;;;;;;4955974;28;92971;-34
2022/06/24 07:46:08;;;;;;;0.77;0.40;;;19.80;99.90;;;;;;4955461;28;96438;-35
2022/06/24 07:48:35;;;;;;;0.60;0.60;;;19.80;99.90;;;;;;4957133;28;94673;-34
2022/06/24 07:51:11;;;;;;;0.22;0.22;;;19.80;99.90;;;;;;4956537;28;94498;-37
2022/06/24 07:53:37;;;;;;;0.73;0.47;;;19.80;99.90;;;;;;4955684;28;93531;-37
2022/06/24 07:58:47;;;;;;;1.35;1.25;;;19.80;99.90;;;;;;4956328;28;94540;-34
2022/06/24 08:01:12;;;;;;;0.20;0.10;;;19.80;99.90;;;;;;4956670;28;93960;-38
2022/06/24 08:03:38;;;;;;;0.47;0.47;;;19.80;99.90;;;;;;4956566;28;91848;-36
2022/06/24 08:06:03;;;;;;;0.30;0.30;;;19.80;99.90;;;;;;4955737;28;95066;-37
2022/06/24 08:08:29;;;;;;;0.20;0.20;;;19.80;99.90;;;;;;4955848;28;94639;-35
2022/06/24 08:10:55;;;;;;;0.40;0.30;;;19.90;99.90;;;;;;4955045;28;95024;-38
2022/06/24 08:13:20;;;;;;;0.63;0.47;;;19.90;99.90;;;;;;4955610;28;94101;-35
2022/06/24 08:15:46;;;;;;;0.55;0.55;;;19.90;99.90;;;;;;4955017;28;94742;-34
2022/06/24 08:18:11;;;;;;;0.30;0.30;;;19.90;99.90;;;;;;4956504;28;94371;-34
2022/06/24 08:20:37;;;;;;;1.30;1.02;;;19.90;99.90;;;;;;4955615;28;94942;-34
2022/06/24 08:23:02;;;;;;;0.43;0.43;;;20.00;99.90;;;;;;4956468;28;94079;-38
2022/06/24 08:25:28;;;;;;;0.20;0.03;;;20.00;99.90;;;;;;4939066;28;94800;-36
2022/06/24 08:27:54;;;;;;;0.63;0.28;;;20.00;99.90;;;;;;4937831;28;94344;-36
2022/06/24 08:30:20;;;;;;;0.20;0.10;;;20.00;99.90;;;;;;4956434;28;94340;-34
2022/06/24 08:32:45;;;;;;;0.20;0.00;;;20.00;99.90;;;;;;4955364;28;93060;-36
2022/06/24 08:35:11;;;;;;;0.20;0.10;;;20.10;99.90;;;;;;4954914;28;95928;-36
2022/06/24 08:37:37;;;;;;;0.47;0.22;;;20.10;99.90;;;;;;4955235;28;96374;-35
2022/06/24 08:40:02;;;;;;;0.25;0.15;;;20.10;99.90;;;;;;4956096;28;94446;-35
2022/06/24 08:42:29;;;;;;;0.85;0.40;;;20.00;99.90;;;;;;4955905;28;93545;-37
2022/06/24 08:44:59;;;;;;;0.20;0.10;;;19.90;99.90;;;;;;4954855;28;93324;-34
2022/06/24 08:47:25;;;;;;;0.38;0.38;;;20.00;99.90;;;;;;4955189;28;95040;-37
2022/06/24 08:49:51;;;;;;;0.20;0.10;;;19.90;99.90;;;;;;4955491;28;92667;-36
2022/06/24 08:52:19;;;;;;;0.20;0.00;;;19.90;99.90;;;;;;4955740;28;93481;-38
2022/06/24 08:54:46;;;;;;;0.20;0.00;;;20.00;99.90;;;;;;4954402;28;96079;-38
2022/06/24 08:57:12;;;;;;;0.20;0.10;;;20.00;99.90;;;;;;4954755;28;94169;-36
2022/06/24 08:59:39;;;;;;;0.32;0.32;;;20.00;99.90;;;;;;4946205;28;93985;-34
2022/06/24 09:02:04;;;;;;;0.20;0.00;;;20.00;99.90;;;;;;4934985;28;94028;-37
2022/06/24 09:04:33;;;;;;;0.88;0.88;;;20.10;99.90;;;;;;4938148;28;94739;-38
2022/06/24 09:07:00;;;;;;;0.57;0.57;;;20.20;99.90;;;;;;4954184;28;93019;-37
2022/06/24 09:09:26;;;;;;;0.20;0.03;;;20.20;99.90;;;;;;4955993;28;93133;-35
2022/06/24 09:11:57;;;;;;;0.63;0.55;;;20.30;99.90;;;;;;4954415;28;94235;-37
2022/06/24 09:14:41;;;;;;;0.30;0.30;;;20.50;99.90;;;;;;4954743;28;95216;-34
2022/06/24 09:17:07;;;;;;;0.47;0.47;;;20.60;99.90;;;;;;4955617;28;94295;-34
2022/06/24 09:19:33;;;;;;;0.30;0.28;;;20.60;99.90;;;;;;4955418;28;93142;-35
2022/06/24 09:21:59;;;;;;;0.30;0.30;;;20.60;99.90;;;;;;4953785;28;94486;-38
2022/06/24 09:24:43;;;;;;;0.63;0.57;;;20.60;99.90;;;;;;4954572;28;97027;-34
2022/06/24 09:27:09;;;;;;;0.35;0.10;;;20.60;99.90;;;;;;4953834;28;95521;-34
2022/06/24 09:29:34;;;;;;;0.20;0.10;;;20.60;99.90;;;;;;4954978;28;94193;-37
2022/06/24 09:32:08;;;;;;;0.98;0.80;;;20.60;99.90;;;;;;4954415;28;93681;-37
2022/06/24 09:34:34;;;;;;;0.20;0.20;;;20.50;99.90;;;;;;4954741;28;94056;-35
2022/06/24 09:36:59;;;;;;;0.20;0.10;;;20.50;99.90;;;;;;4954510;28;95682;-38
2022/06/24 09:39:25;;;;;;;1.00;0.22;;;20.60;99.90;;;;;;4955137;28;93896;-35
2022/06/24 09:41:55;;;;;;;0.57;0.38;;;20.70;99.90;;;;;;4954837;28;92510;-36
2022/06/24 09:44:24;;;;;;;0.40;0.30;;;20.60;99.90;;;;;;4954713;28;95245;-34
2022/06/24 09:47:02;;;;;;;0.47;0.45;;;20.50;99.90;;;;;;4954351;28;94862;-36
2022/06/24 09:49:28;;;;;;;0.20;0.10;;;20.50;99.90;;;;;;4954331;28;94605;-38
2022/06/24 09:51:55;;;;;;;0.20;0.00;;;20.40;99.90;;;;;;4954608;28;93919;-35
2022/06/24 09:54:21;;;;;;;0.47;0.47;;;20.40;99.90;;;;;;4954221;28;95228;-36
2022/06/24 09:56:48;;;;;;;0.68;0.40;;;20.30;99.90;;;;;;4954168;28;94649;-36
2022/06/24 10:02:00;;;;;;;0.95;0.88;;;20.20;99.90;;;;;;4954808;28;94367;-36
2022/06/24 10:04:27;;;;;;;0.30;0.30;;;20.20;99.90;;;;;;4953750;28;94822;-35
2022/06/24 10:06:55;;;;;;;0.20;0.13;;;20.00;99.90;;;;;;4953906;28;94469;-35
2022/06/24 10:09:29;;;;;;;0.28;0.28;;;19.90;99.90;;;;;;4954866;28;92648;-36
2022/06/24 10:11:57;;;;;;;1.92;1.83;;;19.90;99.90;;;;;;4954324;28;94815;-33
2022/06/24 10:14:25;;;;;;;0.20;0.10;;;19.70;99.90;;;;;;4956323;28;94319;-34
2022/06/24 10:16:51;;;;;;;;;;;19.50;99.90;;;;;;4939385;28;95269;-35
2022/06/24 10:19:19;;;;;;;0.20;0.00;;;19.40;99.90;;;;;;4937500;28;92171;-36
2022/06/24 10:21:47;;;;;;;0.20;0.00;;;19.30;99.90;;;;;;4938908;28;94407;-38
2022/06/24 10:24:15;;;;;;;0.20;0.05;;;19.10;99.90;;;;;;4942712;28;94611;-36
2022/06/24 10:26:44;;;;;;;0.20;0.10;;;19.00;99.90;;;;;;4939325;28;94555;-36
2022/06/24 10:29:13;;;;;;;0.20;0.00;;;18.90;99.90;;;;;;4940559;28;92847;-34
2022/06/24 10:31:41;;;;;;;0.20;0.10;;;18.90;99.90;;;;;;4940231;28;91503;-37
2022/06/24 10:34:08;;;;;;;0.20;0.10;;;18.80;99.90;;;;;;4937207;28;94886;-34
2022/06/24 10:36:33;;;;;;;0.22;0.22;;;18.70;99.90;;;;;;4916933;28;94932;-34
2022/06/24 10:39:16;;;;;;;0.20;0.05;;;18.70;99.90;;;;;;4937464;28;94110;-37
2022/06/24 10:41:42;;;;;;;0.55;0.13;;;18.70;99.90;;;;;;4937453;28;93611;-35
2022/06/24 10:44:27;;;;;;;1.55;1.45;;;18.70;99.90;;;;;;4938233;28;94472;-36
2022/06/24 10:47:05;;;;;;;0.20;0.00;;;18.70;99.90;;;;;;4937052;28;95078;-39
2022/06/24 10:49:54;;;;;;;0.20;0.05;;;18.60;99.90;;;;;;4938317;28;94292;-34
2022/06/24 10:52:42;;;;;;;0.20;0.08;;;18.60;99.90;;;;;;4945226;28;93201;-34
2022/06/24 10:55:17;;;;;;;0.30;0.25;;;18.60;99.90;;;;;;4966345;28;95119;-37
2022/06/24 10:57:47;;;;;;;0.20;0.00;;;18.70;99.90;;;;;;4964841;28;95423;-38
2022/06/24 11:00:14;;;;;;;0.20;0.10;;;18.60;99.90;;;;;;4949472;28;92356;-34
2022/06/24 11:02:41;;;;;;;0.20;0.00;;;18.60;99.90;;;;;;4964648;28;94086;-34
2022/06/24 11:05:15;;;;;;;0.20;0.00;;;18.60;99.90;;;;;;4965052;28;95536;-33
2022/06/24 11:07:50;;;;;;;0.20;0.00;;;18.60;99.90;;;;;;4964719;28;95379;-34
2022/06/24 11:10:16;;;;;;;0.20;0.00;;;18.60;99.90;;;;;;4965273;28;93207;-37
2022/06/24 11:12:52;;;;;;;0.20;0.10;;;18.60;99.90;;;;;;4962888;28;93115;-34
2022/06/24 11:15:18;;;;;;;0.20;0.10;;;18.50;99.90;;;;;;4962872;28;94824;-36
2022/06/24 11:17:44;;;;;;;0.20;0.10;;;18.50;99.90;;;;;;4959624;28;94520;-36
2022/06/24 11:20:11;;;;;;;0.20;0.00;;;18.50;99.90;;;;;;4960601;28;94748;-35
2022/06/24 11:22:44;;;;;;;0.20;0.00;;;18.50;99.90;;;;;;4961803;28;91988;-36
2022/06/24 11:25:12;;;;;;;0.20;0.08;;;18.50;99.90;;;;;;4943977;28;95386;-36
2022/06/24 11:27:38;;;;;;;0.20;0.10;;;18.50;99.90;;;;;;4952922;28;96149;-34
2022/06/24 11:30:05;;;;;;;0.25;0.25;;;18.40;99.90;;;;;;4958089;28;94865;-35
2022/06/24 11:32:51;;;;;;;0.20;0.00;;;18.50;99.90;;;;;;4959143;28;95405;-38
2022/06/24 11:35:18;;;;;;;0.52;0.52;;;18.50;99.90;;;;;;4957968;28;94550;-38
2022/06/24 11:37:43;;;;;;;0.20;0.03;;;18.70;99.90;;;;;;4957267;28;94427;-36
2022/06/24 11:40:09;;;;;;;0.20;0.10;;;18.70;99.90;;;;;;4958360;28;94016;-35
2022/06/24 11:42:35;;;;;;;0.30;0.30;;;18.80;99.90;;;;;;4956731;28;93636;-35
2022/06/24 11:45:00;;;;;;;0.20;0.03;;;18.90;99.90;;;;;;4957072;28;94529;-39
2022/06/24 11:47:31;;;;;;;0.20;0.20;;;19.10;99.90;;;;;;4957243;28;94668;-34
2022/06/24 11:49:56;;;;;;;0.28;0.20;;;19.10;99.90;;;;;;4955265;28;93780;-36
2022/06/24 11:52:22;;;;;;;0.52;0.52;;;19.10;99.90;;;;;;4956091;28;93030;-35
2022/06/24 11:54:48;;;;;;;0.20;0.00;;;19.20;99.90;;;;;;4956171;28;95932;-37
2022/06/24 11:57:13;;;;;;;0.20;0.20;;;19.40;99.90;;;;;;4955701;28;94463;-37
2022/06/24 11:59:39;;;;;;;0.25;0.13;;;19.60;99.90;;;;;;4956839;28;92580;-39
2022/06/24 12:02:11;;;;;;;0.52;0.52;;;19.70;99.90;;;;;;4955337;28;93188;-35
2022/06/24 12:04:37;;;;;;;0.20;0.10;;;19.80;99.90;;;;;;4955621;28;94499;-36
2022/06/24 12:07:06;;;;;;;0.38;0.20;;;19.80;99.90;;;;;;4955279;28;94455;-35
2022/06/24 12:09:32;;;;;;;0.20;0.00;;;20.00;99.90;;;;;;4956373;28;94103;-37
2022/06/24 12:12:08;;;;;;;0.25;0.25;;;20.10;99.90;;;;;;4956156;28;92005;-35
2022/06/24 12:14:34;;;;;;;0.20;0.00;;;20.20;99.90;;;;;;4955462;28;95467;-36
2022/06/24 12:17:07;;;;;;;0.88;0.88;;;20.20;99.90;;;;;;4955714;28;95670;-34
2022/06/24 12:19:57;;;;;;;0.20;0.10;;;20.30;99.90;;;;;;4951535;28;95270;-35
2022/06/24 12:22:22;;;;;;;0.20;0.10;;;20.40;99.90;;;;;;4919919;28;94492;-35
2022/06/24 12:25:03;;;;;;;0.60;0.60;;;20.60;99.90;;;;;;4935522;28;93691;-33
2022/06/24 12:27:38;;;;;;;0.25;0.25;;;20.50;99.90;;;;;;4935731;28;94448;-35
2022/06/24 12:30:06;;;;;;;0.20;0.00;;;20.50;99.90;;;;;;4936833;28;93164;-37
2022/06/24 12:32:55;;;;;;;0.20;0.17;;;20.60;99.90;;;;;;4951027;28;92245;-34
2022/06/24 12:35:34;;;;;;;0.47;0.40;;;20.60;99.90;;;;;;4940582;28;94909;-34
2022/06/24 12:38:02;;;;;;;6.03;0.43;;;20.70;99.90;;;;;;4956035;28;94470;-34
2022/06/24 12:40:28;;;;;;;;;;;20.70;99.90;;;;;;4956404;28;92168;-34
2022/06/24 12:43:14;;;;;;;0.20;0.20;;;20.70;99.90;;;;;;4956948;28;92228;-36
2022/06/24 12:45:41;;;;;;;0.50;0.50;;;20.70;99.90;;;;;;4954988;28;95557;-38
2022/06/24 12:51:00;;;;;;;0.95;0.40;;;20.90;99.90;;;;;;4955142;28;93810;-35
2022/06/24 12:53:25;;;;;;;0.35;0.15;;;20.90;99.90;;;;;;4955647;28;92506;-38
2022/06/24 12:55:52;;;;;;;0.28;0.13;;;21.00;99.90;;;;;;4955412;28;94729;-35
2022/06/24 12:58:18;;;;;;;0.20;0.00;;;21.10;99.90;;;;;;4955446;28;95487;-33
2022/06/24 13:00:44;;;;;;;0.30;0.30;;;21.10;99.90;;;;;;4955923;28;94864;-36
2022/06/24 13:03:09;;;;;;;0.40;0.40;;;21.10;99.90;;;;;;4955206;28;92835;-37